createdAt,value
2023-02-03T00:03:15.351Z,94.02
2023-02-03T00:08:17.902Z,94.42
2023-02-03T00:13:19.771Z,94.44
2023-02-03T00:18:21.664Z,93.77
2023-02-03T00:23:23.588Z,92.75
2023-02-03T00:28:25.456Z,93.28
2023-02-03T00:33:27.341Z,93.32
2023-02-03T00:38:29.268Z,92.88
2023-02-03T00:43:31.144Z,92.45
2023-02-03T00:48:33.048Z,92.10
2023-02-03T00:53:35.000Z,92.81
2023-02-03T00:58:36.907Z,92.01
2023-02-03T01:03:38.792Z,92.09
2023-02-03T01:08:40.780Z,92.86
2023-02-03T01:13:42.806Z,92.65
2023-02-03T01:18:44.791Z,92.53
2023-02-03T01:23:46.751Z,92.89
2023-02-03T01:28:53.304Z,92.26
2023-02-03T01:33:55.513Z,91.88
2023-02-03T01:38:57.385Z,92.07
2023-02-03T01:43:59.851Z,93.09
2023-02-03T01:49:07.675Z,93.51
2023-02-03T01:54:10.484Z,94.12
2023-02-03T01:59:12.433Z,93.90
2023-02-03T02:04:14.307Z,94.05
2023-02-03T02:09:16.218Z,94.73
2023-02-03T02:14:18.113Z,95.04
2023-02-03T02:19:44.363Z,95.30
2023-02-03T02:25:04.321Z,95.14
2023-02-03T02:30:36.920Z,94.67
2023-02-03T02:36:06.133Z,94.33
2023-02-03T02:41:10.815Z,95.04
2023-02-03T02:46:37.669Z,94.55
2023-02-03T02:51:39.738Z,95.89
2023-02-03T02:56:41.601Z,95.36
2023-02-03T03:01:43.505Z,96.04
2023-02-03T03:06:48.257Z,96.75
2023-02-03T03:12:02.115Z,96.10
2023-02-03T03:17:06.159Z,96.47
2023-02-03T03:22:09.299Z,96.32
2023-02-03T03:27:23.665Z,96.08
2023-02-03T03:32:25.553Z,96.21
2023-02-03T03:37:37.298Z,96.11
2023-02-03T03:42:45.751Z,95.97
2023-02-03T03:47:48.518Z,95.47
2023-02-03T03:52:50.208Z,95.37
2023-02-03T03:58:00.964Z,95.24
2023-02-03T04:03:07.289Z,95.43
2023-02-03T04:08:09.331Z,95.65
2023-02-03T04:13:12.117Z,95.85
2023-02-03T04:18:14.715Z,96.39
2023-02-03T04:23:16.912Z,96.29
2023-02-03T04:28:19.022Z,96.49
2023-02-03T04:33:20.885Z,96.20
2023-02-03T04:38:22.671Z,96.40
2023-02-03T04:43:24.498Z,97.14
2023-02-03T04:48:26.382Z,97.57
2023-02-03T04:53:28.135Z,97.74
2023-02-03T04:58:29.884Z,97.18
2023-02-03T05:03:31.678Z,97.53
2023-02-03T05:08:33.427Z,97.08
2023-02-03T05:13:35.186Z,97.18
2023-02-03T05:18:37.008Z,97.25
2023-02-03T05:23:38.742Z,97.26
2023-02-03T05:28:40.493Z,97.01
2023-02-03T05:33:42.268Z,96.91
2023-02-03T05:38:44.053Z,97.43
2023-02-03T05:43:45.834Z,97.15
2023-02-03T05:48:47.618Z,96.47
2023-02-03T05:53:49.363Z,95.85
2023-02-03T05:58:51.097Z,95.09
2023-02-03T06:03:52.954Z,94.83
2023-02-03T06:08:54.792Z,94.41
2023-02-03T06:13:56.747Z,94.36
2023-02-03T06:18:58.490Z,94.13
2023-02-03T06:24:00.228Z,93.42
2023-02-03T06:29:02.053Z,92.71
2023-02-03T06:34:03.814Z,92.64
2023-02-03T06:39:05.548Z,92.18
2023-02-03T06:44:07.657Z,92.16
2023-02-03T06:49:09.408Z,91.57
2023-02-03T06:54:11.815Z,90.94
2023-02-03T06:59:13.813Z,91.29
2023-02-03T07:04:15.620Z,91.14
2023-02-03T07:09:17.378Z,89.88
2023-02-03T07:14:19.134Z,89.02
2023-02-03T07:19:20.878Z,88.96
2023-02-03T07:24:22.624Z,88.30
2023-02-03T07:29:24.404Z,87.96
2023-02-03T07:34:26.138Z,79.92
2023-02-03T07:39:27.909Z,81.57
2023-02-03T07:44:29.670Z,81.16
2023-02-03T07:49:31.419Z,80.64
2023-02-03T07:54:33.183Z,81.70
2023-02-03T07:59:34.911Z,81.70
2023-02-03T08:04:36.802Z,81.56
2023-02-03T08:09:38.622Z,82.15
2023-02-03T08:14:40.369Z,81.67
2023-02-03T08:19:42.107Z,80.64
2023-02-03T08:24:44.270Z,80.69
2023-02-03T08:29:46.045Z,79.69
2023-02-03T08:34:48.595Z,79.97
2023-02-03T08:39:50.880Z,79.82
2023-02-03T08:44:52.642Z,79.08
2023-02-03T08:49:54.376Z,79.48
2023-02-03T08:54:56.154Z,79.90
2023-02-03T08:59:57.886Z,81.12
2023-02-03T09:04:59.720Z,82.09
2023-02-03T09:10:01.494Z,82.35
2023-02-03T09:15:04.948Z,83.54
2023-02-03T09:20:07.390Z,83.57
2023-02-03T09:25:09.151Z,84.20
2023-02-03T09:30:11.672Z,85.76
2023-02-03T09:35:13.477Z,86.47
2023-02-03T09:40:28.220Z,86.08
2023-02-03T09:45:30.698Z,86.04
2023-02-03T09:50:33.927Z,86.41
2023-02-03T09:55:42.289Z,86.76
2023-02-03T10:00:51.579Z,85.59
2023-02-03T10:06:14.836Z,84.54
2023-02-03T10:11:22.255Z,83.78
2023-02-03T10:16:28.486Z,84.11
2023-02-03T10:21:39.282Z,83.48
2023-02-03T10:26:41.078Z,83.70
2023-02-03T10:31:42.979Z,83.88
2023-02-03T10:37:46.358Z,83.82
2023-02-03T10:42:48.203Z,83.88
2023-02-03T10:47:53.814Z,84.19
2023-02-03T10:53:20.137Z,85.10
2023-02-03T10:58:28.621Z,85.62
2023-02-03T11:03:30.430Z,86.03
2023-02-03T11:08:32.497Z,85.42
2023-02-03T11:13:34.304Z,85.23
2023-02-03T11:18:56.176Z,84.00
2023-02-03T11:24:05.082Z,82.98
2023-02-03T11:29:06.939Z,83.08
2023-02-03T11:34:19.562Z,83.32
2023-02-03T11:39:29.248Z,83.54
2023-02-03T11:44:31.026Z,83.15
2023-02-03T11:49:51.359Z,82.56
2023-02-03T11:55:29.291Z,82.68
2023-02-03T12:00:54.942Z,82.16
2023-02-03T12:06:14.525Z,81.60
2023-02-03T12:11:37.094Z,82.00
2023-02-03T12:16:47.897Z,80.96
2023-02-03T12:21:51.739Z,82.29
2023-02-03T12:27:24.323Z,82.97
2023-02-03T12:32:32.400Z,82.76
2023-02-03T12:37:39.949Z,83.91
2023-02-03T12:42:47.911Z,84.51
2023-02-03T12:48:01.068Z,84.11
2023-02-03T12:53:02.579Z,83.88
2023-02-03T12:58:39.963Z,83.80
2023-02-03T13:03:56.151Z,83.41
2023-02-03T13:09:14.212Z,83.28
2023-02-03T13:14:23.210Z,82.57
2023-02-03T13:19:26.738Z,81.49
2023-02-03T13:24:28.682Z,81.28
2023-02-03T13:29:54.360Z,81.15
2023-02-03T13:35:33.240Z,82.11
2023-02-03T13:41:00.135Z,83.64
2023-02-03T13:46:02.111Z,85.32
2023-02-03T13:51:06.360Z,86.48
2023-02-03T13:56:09.055Z,86.71
2023-02-03T14:01:30.592Z,87.42
2023-02-03T14:06:38.472Z,87.37
2023-02-03T14:11:40.489Z,87.25
2023-02-03T14:16:54.677Z,87.36
2023-02-03T14:22:04.216Z,88.22
2023-02-03T14:27:16.375Z,89.09
2023-02-03T14:32:18.096Z,90.74
2023-02-03T14:37:23.644Z,90.82
2023-02-03T14:43:04.895Z,92.20
2023-02-03T14:48:11.350Z,94.01
2023-02-03T14:53:45.455Z,94.61
2023-02-03T14:58:50.801Z,95.36
2023-02-03T15:04:13.914Z,94.94
2023-02-03T15:09:32.080Z,94.72
2023-02-03T15:14:33.919Z,94.45
2023-02-03T15:19:37.979Z,95.51
2023-02-03T15:24:39.823Z,95.42
2023-02-03T15:29:41.699Z,96.79
2023-02-03T15:34:52.205Z,97.36
2023-02-03T15:40:07.130Z,97.26
2023-02-03T15:45:29.366Z,96.89
2023-02-03T15:50:46.097Z,97.64
2023-02-03T15:55:52.442Z,98.65
2023-02-03T16:01:02.086Z,99.34
2023-02-03T16:06:25.511Z,98.80
2023-02-03T16:11:30.397Z,99.55
2023-02-03T16:17:02.755Z,100.00
2023-02-03T16:22:30.309Z,100.00
2023-02-03T16:27:33.554Z,100.00
2023-02-03T16:32:35.561Z,100.00
2023-02-03T16:37:43.799Z,100.00
2023-02-03T16:42:45.609Z,100.00
2023-02-03T16:47:47.396Z,100.00
2023-02-03T16:52:49.366Z,100.00
2023-02-03T16:57:51.178Z,100.00
2023-02-03T17:02:53.123Z,100.00
2023-02-03T17:07:55.044Z,100.00
2023-02-03T17:12:56.844Z,100.00
2023-02-03T17:17:58.896Z,100.00
2023-02-03T17:23:00.802Z,100.00
2023-02-03T17:28:06.267Z,100.00
2023-02-03T17:33:08.457Z,100.00
2023-02-03T17:38:13.288Z,100.00
2023-02-03T17:53:53.487Z,100.00
2023-02-03T17:58:56.328Z,100.00
2023-02-03T18:03:59.587Z,100.00
2023-02-03T18:09:08.502Z,99.30
2023-02-03T18:14:10.471Z,98.98
2023-02-03T18:19:13.749Z,98.63
2023-02-03T18:24:15.551Z,98.47
2023-02-03T18:29:17.900Z,97.83
2023-02-03T18:34:19.775Z,97.29
2023-02-03T18:39:21.637Z,97.06
2023-02-03T18:44:23.458Z,96.84
2023-02-03T18:49:25.521Z,96.05
2023-02-03T18:54:28.766Z,96.84
2023-02-03T18:59:32.275Z,96.70
2023-02-03T19:04:34.076Z,97.15
2023-02-03T19:09:35.863Z,97.48
2023-02-03T19:14:37.764Z,97.77
2023-02-03T19:19:39.575Z,97.81
2023-02-03T19:24:41.975Z,97.71
2023-02-03T19:29:43.911Z,97.03
2023-02-03T19:34:45.812Z,96.97
2023-02-03T19:39:47.592Z,97.46
2023-02-03T19:44:49.340Z,97.43
2023-02-03T19:49:51.081Z,96.93
2023-02-03T19:54:52.992Z,96.94
2023-02-03T19:59:54.865Z,97.87
2023-02-03T20:04:56.817Z,97.54
2023-02-03T20:09:58.921Z,97.78
2023-02-03T20:15:00.815Z,97.58
2023-02-03T20:20:02.682Z,98.00
2023-02-03T20:25:04.970Z,98.24
2023-02-03T20:30:07.252Z,98.49
2023-02-03T20:35:09.206Z,98.49
2023-02-03T20:40:15.962Z,98.77
2023-02-03T20:45:18.335Z,98.63
2023-02-03T20:50:25.023Z,98.00
2023-02-03T20:55:28.831Z,97.39
2023-02-03T21:00:30.899Z,97.02
2023-02-03T21:05:35.853Z,96.13
2023-02-03T21:10:37.750Z,95.58
2023-02-03T21:15:39.628Z,95.45
2023-02-03T21:20:41.498Z,94.04
2023-02-03T21:25:43.354Z,93.89
2023-02-03T21:30:45.256Z,93.82
2023-02-03T21:35:47.216Z,94.19
2023-02-03T21:40:49.127Z,94.01
2023-02-03T21:45:51.142Z,93.60
2023-02-03T21:50:57.199Z,93.52
2023-02-03T21:56:17.144Z,93.44
2023-02-03T22:01:19.850Z,93.83
2023-02-03T22:06:21.513Z,94.34
2023-02-03T22:11:25.047Z,94.19
2023-02-03T22:16:26.968Z,94.45
2023-02-03T22:21:28.856Z,94.43
2023-02-03T22:26:30.722Z,94.70
2023-02-03T22:31:32.769Z,94.80
2023-02-03T22:36:34.787Z,94.91
2023-02-03T22:41:36.740Z,94.56
2023-02-03T22:46:38.705Z,94.96
2023-02-03T22:51:40.586Z,95.48
2023-02-03T22:56:42.403Z,95.55
2023-02-03T23:01:44.303Z,95.21
2023-02-03T23:06:46.088Z,95.38
2023-02-03T23:11:47.867Z,95.58
2023-02-03T23:16:49.745Z,95.53
2023-02-03T23:21:51.671Z,95.50
2023-02-03T23:26:53.647Z,95.73
2023-02-03T23:31:55.598Z,95.65
2023-02-03T23:36:57.576Z,95.41
2023-02-03T23:41:59.450Z,95.37
2023-02-03T23:47:01.285Z,95.48
2023-02-03T23:52:03.233Z,95.68
2023-02-03T23:57:05.190Z,95.31
